This is the latest recevied weather packets stored in our database for station/object N6OL. If no packets are shown the sender has not sent any weather packets the latest 10 day(s).
| Time | Temp. | Humidity | Pressure | Rain* | Wind** | Luminosity | Snow |
|---|---|---|---|---|---|---|---|
| 1777763424 | 16.11° C | 70% | 1012 hPa | 0 mm | - | 529 W/m² | - |
| 1777762803 | 16.67° C | 68% | 1012.1 hPa | 0 mm | - | 619 W/m² | - |
| 1777760703 | 16.11° C | 70% | 1012.6 hPa | 0 mm | - | 756 W/m² | - |
| 1777758603 | 16.11° C | 70% | 1012.9 hPa | 0 mm | - | 468 W/m² | - |
| 1777755303 | 15.56° C | 73% | 1013.5 hPa | 0 mm | - | 589 W/m² | - |
| 1777754703 | 15.56° C | 73% | 1013.7 hPa | 0 mm | - | 450 W/m² | - |
| 1777750824 | 15° C | 76% | 1014.2 hPa | 0 mm | - | 216 W/m² | - |
| 1777749003 | 14.44° C | 77% | 1014.2 hPa | 0 mm | - | 251 W/m² | - |
| 1777747203 | 13.89° C | 80% | 1014.1 hPa | 0 mm | - | 178 W/m² | - |
| 1777746303 | 13.89° C | 80% | 1014.2 hPa | 0 mm | - | 151 W/m² | - |
| 1777744803 | 13.89° C | 80% | 1014.1 hPa | 0 mm | - | 121 W/m² | - |
| 1777742724 | 13.33° C | 82% | 1013.9 hPa | 0 mm | - | 127 W/m² | - |
| 1777742103 | 13.33° C | 82% | 1013.9 hPa | 0 mm | - | 127 W/m² | - |
| 1777741803 | 13.33° C | 82% | 1013.8 hPa | 0 mm | - | 141 W/m² | - |
| 1777741503 | 13.33° C | 83% | 1013.8 hPa | 0 mm | - | 98 W/m² | - |
| 1777740903 | 13.33° C | 84% | 1013.8 hPa | 0 mm | - | 104 W/m² | - |
| 1777740603 | 13.33° C | 84% | 1013.8 hPa | 0 mm | - | 104 W/m² | - |
| 1777735803 | 13.33° C | 85% | 1013.5 hPa | 0 mm | - | 44 W/m² | - |
| 1777730703 | 12.78° C | 84% | 1013 hPa | 0 mm | - | 30 W/m² | - |
| 1777729803 | 12.78° C | 84% | 1013 hPa | 0 mm | - | 21 W/m² | - |
| 1777727703 | 12.78° C | 84% | 1012.6 hPa | 0 mm | - | 0 W/m² | - |
| 1777727103 | 12.78° C | 84% | 1012.6 hPa | 0 mm | - | 0 W/m² | - |
| 1777726224 | 12.78° C | 84% | 1012.5 hPa | 0 mm | - | 0 W/m² | - |
| 1777725303 | 12.78° C | 84% | 1012.5 hPa | 0 mm | - | 0 W/m² | - |
| 1777723503 | 12.78° C | 84% | 1012.5 hPa | 0 mm | - | 0 W/m² | - |
* Rain latest hour (hover to see other rain measurements)
** Current wind speed in m/s (hover to see current wind gust speed)